sensor_id;sensor_type;location;lat;lon;timestamp;temperature;humidity
65824;SHT31;52585;47.566;19.056;2022-08-11T00:01:24;23.03;44.38
65824;SHT31;52585;47.566;19.056;2022-08-11T00:03:57;23.02;44.43
65824;SHT31;52585;47.566;19.056;2022-08-11T00:06:36;22.99;44.63
65824;SHT31;52585;47.566;19.056;2022-08-11T00:09:05;22.98;44.67
65824;SHT31;52585;47.566;19.056;2022-08-11T00:11:39;22.96;44.71
65824;SHT31;52585;47.566;19.056;2022-08-11T00:14:13;22.94;44.68
65824;SHT31;52585;47.566;19.056;2022-08-11T00:19:23;22.92;44.83
65824;SHT31;52585;47.566;19.056;2022-08-11T00:22:19;22.91;45.00
65824;SHT31;52585;47.566;19.056;2022-08-11T00:24:47;22.89;45.17
65824;SHT31;52585;47.566;19.056;2022-08-11T00:27:15;22.88;45.14
65824;SHT31;52585;47.566;19.056;2022-08-11T00:29:40;22.85;45.15
65824;SHT31;52585;47.566;19.056;2022-08-11T00:32:18;22.83;45.19
65824;SHT31;52585;47.566;19.056;2022-08-11T00:34:44;22.81;45.41
65824;SHT31;52585;47.566;19.056;2022-08-11T00:37:17;22.81;45.43
65824;SHT31;52585;47.566;19.056;2022-08-11T00:39:47;22.77;45.71
65824;SHT31;52585;47.566;19.056;2022-08-11T00:48:04;22.72;45.85
65824;SHT31;52585;47.566;19.056;2022-08-11T00:51:04;22.68;45.94
65824;SHT31;52585;47.566;19.056;2022-08-11T00:57:14;22.65;46.18
65824;SHT31;52585;47.566;19.056;2022-08-11T01:06:01;22.61;46.51
65824;SHT31;52585;47.566;19.056;2022-08-11T01:09:05;22.59;46.61
65824;SHT31;52585;47.566;19.056;2022-08-11T01:15:47;22.57;46.77
65824;SHT31;52585;47.566;19.056;2022-08-11T01:18:07;22.55;46.80
65824;SHT31;52585;47.566;19.056;2022-08-11T01:23:52;22.51;46.91
65824;SHT31;52585;47.566;19.056;2022-08-11T01:29:51;22.48;47.03
65824;SHT31;52585;47.566;19.056;2022-08-11T01:33:00;22.46;47.08
65824;SHT31;52585;47.566;19.056;2022-08-11T01:46:13;22.38;47.27
65824;SHT31;52585;47.566;19.056;2022-08-11T01:57:27;22.27;47.56
65824;SHT31;52585;47.566;19.056;2022-08-11T02:00:08;22.27;47.66
65824;SHT31;52585;47.566;19.056;2022-08-11T02:06:04;22.22;47.69
65824;SHT31;52585;47.566;19.056;2022-08-11T02:11:49;22.21;47.84
65824;SHT31;52585;47.566;19.056;2022-08-11T02:17:40;22.18;47.61
65824;SHT31;52585;47.566;19.056;2022-08-11T02:23:51;22.17;47.83
65824;SHT31;52585;47.566;19.056;2022-08-11T02:26:25;22.17;47.91
65824;SHT31;52585;47.566;19.056;2022-08-11T02:29:17;22.15;48.04
65824;SHT31;52585;47.566;19.056;2022-08-11T02:32:28;22.15;48.09
65824;SHT31;52585;47.566;19.056;2022-08-11T02:35:29;22.16;48.19
65824;SHT31;52585;47.566;19.056;2022-08-11T02:41:32;22.16;48.31
65824;SHT31;52585;47.566;19.056;2022-08-11T02:51:13;22.16;48.63
65824;SHT31;52585;47.566;19.056;2022-08-11T02:57:35;22.14;48.72
65824;SHT31;52585;47.566;19.056;2022-08-11T03:00:12;22.14;48.85
65824;SHT31;52585;47.566;19.056;2022-08-11T03:02:50;22.13;48.77
65824;SHT31;52585;47.566;19.056;2022-08-11T03:28:19;21.92;49.19
65824;SHT31;52585;47.566;19.056;2022-08-11T03:31:19;21.89;49.22
65824;SHT31;52585;47.566;19.056;2022-08-11T03:34:26;21.87;49.25
65824;SHT31;52585;47.566;19.056;2022-08-11T03:39:41;21.82;49.23
65824;SHT31;52585;47.566;19.056;2022-08-11T03:42:41;21.81;49.34
65824;SHT31;52585;47.566;19.056;2022-08-11T04:12:20;21.60;50.39
65824;SHT31;52585;47.566;19.056;2022-08-11T04:24:57;21.52;50.55
65824;SHT31;52585;47.566;19.056;2022-08-11T04:34:07;21.49;50.89
65824;SHT31;52585;47.566;19.056;2022-08-11T05:05:19;21.66;52.21
65824;SHT31;52585;47.566;19.056;2022-08-11T05:08:42;21.66;52.28
65824;SHT31;52585;47.566;19.056;2022-08-11T05:14:35;21.65;52.28
65824;SHT31;52585;47.566;19.056;2022-08-11T05:20:51;21.74;54.73
65824;SHT31;52585;47.566;19.056;2022-08-11T05:23:41;21.79;54.87
65824;SHT31;52585;47.566;19.056;2022-08-11T05:26:46;21.84;54.53
65824;SHT31;52585;47.566;19.056;2022-08-11T05:32:45;21.95;53.90
65824;SHT31;52585;47.566;19.056;2022-08-11T05:36:07;21.99;53.50
65824;SHT31;52585;47.566;19.056;2022-08-11T05:38:48;22.04;53.25
65824;SHT31;52585;47.566;19.056;2022-08-11T05:41:42;22.09;53.02
65824;SHT31;52585;47.566;19.056;2022-08-11T05:44:27;22.13;52.81
65824;SHT31;52585;47.566;19.056;2022-08-11T05:47:23;22.17;52.79
65824;SHT31;52585;47.566;19.056;2022-08-11T05:50:11;22.21;52.39
65824;SHT31;52585;47.566;19.056;2022-08-11T05:53:00;22.27;52.01
65824;SHT31;52585;47.566;19.056;2022-08-11T05:55:47;22.32;51.56
65824;SHT31;52585;47.566;19.056;2022-08-11T05:58:35;22.36;51.49
65824;SHT31;52585;47.566;19.056;2022-08-11T06:01:04;22.39;50.91
65824;SHT31;52585;47.566;19.056;2022-08-11T06:03:32;22.45;50.78
65824;SHT31;52585;47.566;19.056;2022-08-11T06:06:20;22.50;50.01
65824;SHT31;52585;47.566;19.056;2022-08-11T06:08:47;22.53;49.66
65824;SHT31;52585;47.566;19.056;2022-08-11T06:11:14;22.60;49.55
65824;SHT31;52585;47.566;19.056;2022-08-11T06:13:44;22.64;49.38
65824;SHT31;52585;47.566;19.056;2022-08-11T06:16:12;22.67;48.94
65824;SHT31;52585;47.566;19.056;2022-08-11T06:18:48;22.72;48.75
65824;SHT31;52585;47.566;19.056;2022-08-11T06:21:24;22.76;48.66
65824;SHT31;52585;47.566;19.056;2022-08-11T06:23:52;22.81;48.93
65824;SHT31;52585;47.566;19.056;2022-08-11T06:26:19;22.84;49.09
65824;SHT31;52585;47.566;19.056;2022-08-11T06:28:46;22.86;48.90
65824;SHT31;52585;47.566;19.056;2022-08-11T06:31:18;22.90;48.53
65824;SHT31;52585;47.566;19.056;2022-08-11T06:36:22;22.98;48.28
65824;SHT31;52585;47.566;19.056;2022-08-11T06:41:52;23.04;48.32
65824;SHT31;52585;47.566;19.056;2022-08-11T06:44:30;23.09;48.16
65824;SHT31;52585;47.566;19.056;2022-08-11T06:47:15;23.13;47.90
65824;SHT31;52585;47.566;19.056;2022-08-11T06:49:44;23.17;47.56
65824;SHT31;52585;47.566;19.056;2022-08-11T06:52:34;23.22;47.09
65824;SHT31;52585;47.566;19.056;2022-08-11T06:55:06;23.26;47.10
65824;SHT31;52585;47.566;19.056;2022-08-11T06:57:39;23.30;46.97
65824;SHT31;52585;47.566;19.056;2022-08-11T07:00:30;23.35;46.72
65824;SHT31;52585;47.566;19.056;2022-08-11T07:15:35;23.58;45.77
65824;SHT31;52585;47.566;19.056;2022-08-11T07:18:10;23.62;45.81
65824;SHT31;52585;47.566;19.056;2022-08-11T07:21:27;23.68;45.53
65824;SHT31;52585;47.566;19.056;2022-08-11T07:24:17;23.72;45.27
65824;SHT31;52585;47.566;19.056;2022-08-11T07:27:13;23.75;45.25
65824;SHT31;52585;47.566;19.056;2022-08-11T07:30:13;23.80;45.17
65824;SHT31;52585;47.566;19.056;2022-08-11T07:32:44;23.83;45.04
65824;SHT31;52585;47.566;19.056;2022-08-11T07:35:16;23.89;45.03
65824;SHT31;52585;47.566;19.056;2022-08-11T07:37:49;23.92;44.31
65824;SHT31;52585;47.566;19.056;2022-08-11T07:40:23;23.96;44.41
65824;SHT31;52585;47.566;19.056;2022-08-11T07:42:50;24.01;44.39
65824;SHT31;52585;47.566;19.056;2022-08-11T07:45:17;24.06;44.31
65824;SHT31;52585;47.566;19.056;2022-08-11T07:48:03;24.10;43.86
65824;SHT31;52585;47.566;19.056;2022-08-11T07:50:50;24.14;43.84
65824;SHT31;52585;47.566;19.056;2022-08-11T07:53:36;24.20;43.70
65824;SHT31;52585;47.566;19.056;2022-08-11T07:56:04;24.23;43.59
65824;SHT31;52585;47.566;19.056;2022-08-11T07:58:31;24.25;43.52
65824;SHT31;52585;47.566;19.056;2022-08-11T08:01:21;24.28;43.50
65824;SHT31;52585;47.566;19.056;2022-08-11T08:04:09;24.31;43.71
65824;SHT31;52585;47.566;19.056;2022-08-11T08:06:57;24.35;43.64
65824;SHT31;52585;47.566;19.056;2022-08-11T08:09:45;24.37;43.66
65824;SHT31;52585;47.566;19.056;2022-08-11T08:12:32;24.41;43.71
65824;SHT31;52585;47.566;19.056;2022-08-11T08:15:19;24.44;43.69
65824;SHT31;52585;47.566;19.056;2022-08-11T08:18:05;24.48;43.70
65824;SHT31;52585;47.566;19.056;2022-08-11T08:20:43;24.51;43.73
65824;SHT31;52585;47.566;19.056;2022-08-11T08:23:13;24.55;43.23
65824;SHT31;52585;47.566;19.056;2022-08-11T08:25:42;24.57;43.02
65824;SHT31;52585;47.566;19.056;2022-08-11T08:28:10;24.60;42.99
65824;SHT31;52585;47.566;19.056;2022-08-11T08:30:40;24.64;42.91
65824;SHT31;52585;47.566;19.056;2022-08-11T08:33:13;24.69;42.83
65824;SHT31;52585;47.566;19.056;2022-08-11T08:35:43;24.75;42.88
65824;SHT31;52585;47.566;19.056;2022-08-11T08:38:11;24.83;43.02
65824;SHT31;52585;47.566;19.056;2022-08-11T08:40:39;24.90;43.17
65824;SHT31;52585;47.566;19.056;2022-08-11T08:43:12;24.96;43.18
65824;SHT31;52585;47.566;19.056;2022-08-11T08:45:42;25.03;43.01
65824;SHT31;52585;47.566;19.056;2022-08-11T08:48:15;25.09;42.54
65824;SHT31;52585;47.566;19.056;2022-08-11T08:50:49;25.15;42.22
65824;SHT31;52585;47.566;19.056;2022-08-11T08:53:40;25.22;42.44
65824;SHT31;52585;47.566;19.056;2022-08-11T08:56:16;25.31;42.54
65824;SHT31;52585;47.566;19.056;2022-08-11T08:58:45;25.37;42.38
65824;SHT31;52585;47.566;19.056;2022-08-11T09:01:14;25.43;42.46
65824;SHT31;52585;47.566;19.056;2022-08-11T09:03:46;25.52;42.39
65824;SHT31;52585;47.566;19.056;2022-08-11T09:06:12;25.61;42.26
65824;SHT31;52585;47.566;19.056;2022-08-11T09:08:41;25.71;42.27
65824;SHT31;52585;47.566;19.056;2022-08-11T09:11:09;25.78;41.72
65824;SHT31;52585;47.566;19.056;2022-08-11T09:13:56;25.85;41.41
65824;SHT31;52585;47.566;19.056;2022-08-11T09:16:23;25.89;40.66
65824;SHT31;52585;47.566;19.056;2022-08-11T09:18:50;25.91;40.22
65824;SHT31;52585;47.566;19.056;2022-08-11T09:21:17;25.95;39.76
65824;SHT31;52585;47.566;19.056;2022-08-11T09:23:47;25.97;39.91
65824;SHT31;52585;47.566;19.056;2022-08-11T09:26:34;26.01;40.11
65824;SHT31;52585;47.566;19.056;2022-08-11T09:29:21;26.03;39.73
65824;SHT31;52585;47.566;19.056;2022-08-11T09:31:48;26.02;39.95
65824;SHT31;52585;47.566;19.056;2022-08-11T09:34:16;26.01;40.18
65824;SHT31;52585;47.566;19.056;2022-08-11T09:36:42;26.02;40.25
65824;SHT31;52585;47.566;19.056;2022-08-11T09:39:28;26.02;40.05
65824;SHT31;52585;47.566;19.056;2022-08-11T09:42:14;26.05;40.49
65824;SHT31;52585;47.566;19.056;2022-08-11T09:44:45;26.13;40.50
65824;SHT31;52585;47.566;19.056;2022-08-11T09:47:20;26.18;40.35
65824;SHT31;52585;47.566;19.056;2022-08-11T09:49:47;26.21;40.20
65824;SHT31;52585;47.566;19.056;2022-08-11T09:52:16;26.20;39.37
65824;SHT31;52585;47.566;19.056;2022-08-11T09:54:43;26.18;39.44
65824;SHT31;52585;47.566;19.056;2022-08-11T09:57:13;26.18;38.84
65824;SHT31;52585;47.566;19.056;2022-08-11T10:00:02;26.18;39.35
65824;SHT31;52585;47.566;19.056;2022-08-11T10:02:37;26.24;39.50
65824;SHT31;52585;47.566;19.056;2022-08-11T10:05:09;26.31;38.88
65824;SHT31;52585;47.566;19.056;2022-08-11T10:07:59;26.34;38.49
65824;SHT31;52585;47.566;19.056;2022-08-11T10:10:27;26.35;38.70
65824;SHT31;52585;47.566;19.056;2022-08-11T10:13:01;26.37;39.05
65824;SHT31;52585;47.566;19.056;2022-08-11T10:15:32;26.37;38.85
65824;SHT31;52585;47.566;19.056;2022-08-11T10:18:06;26.38;38.89
65824;SHT31;52585;47.566;19.056;2022-08-11T10:21:00;26.38;38.18
65824;SHT31;52585;47.566;19.056;2022-08-11T10:23:34;26.42;38.73
65824;SHT31;52585;47.566;19.056;2022-08-11T10:26:22;26.44;38.55
65824;SHT31;52585;47.566;19.056;2022-08-11T10:29:11;26.49;38.54
65824;SHT31;52585;47.566;19.056;2022-08-11T10:31:58;26.53;38.81
65824;SHT31;52585;47.566;19.056;2022-08-11T10:34:45;26.57;38.53
65824;SHT31;52585;47.566;19.056;2022-08-11T10:37:13;26.57;38.62
65824;SHT31;52585;47.566;19.056;2022-08-11T10:39:41;26.60;38.57
65824;SHT31;52585;47.566;19.056;2022-08-11T10:42:09;26.63;38.50
65824;SHT31;52585;47.566;19.056;2022-08-11T10:44:56;26.64;37.98
65824;SHT31;52585;47.566;19.056;2022-08-11T10:47:25;26.66;38.34
65824;SHT31;52585;47.566;19.056;2022-08-11T10:50:02;26.71;38.50
65824;SHT31;52585;47.566;19.056;2022-08-11T10:52:57;26.77;38.58
65824;SHT31;52585;47.566;19.056;2022-08-11T10:55:44;26.79;38.63
65824;SHT31;52585;47.566;19.056;2022-08-11T10:58:29;26.83;38.55
65824;SHT31;52585;47.566;19.056;2022-08-11T11:01:11;26.86;38.18
65824;SHT31;52585;47.566;19.056;2022-08-11T11:03:46;26.90;37.98
65824;SHT31;52585;47.566;19.056;2022-08-11T11:15:01;27.08;36.84
65824;SHT31;52585;47.566;19.056;2022-08-11T11:18:03;27.10;36.89
65824;SHT31;52585;47.566;19.056;2022-08-11T11:20:44;27.12;37.08
65824;SHT31;52585;47.566;19.056;2022-08-11T11:25:54;27.13;36.23
65824;SHT31;52585;47.566;19.056;2022-08-11T11:32:14;27.10;34.93
65824;SHT31;52585;47.566;19.056;2022-08-11T11:37:40;27.11;34.69
65824;SHT31;52585;47.566;19.056;2022-08-11T11:40:11;27.10;35.32
65824;SHT31;52585;47.566;19.056;2022-08-11T11:42:41;27.10;35.19
65824;SHT31;52585;47.566;19.056;2022-08-11T11:45:10;27.12;36.07
65824;SHT31;52585;47.566;19.056;2022-08-11T11:47:40;27.14;36.74
65824;SHT31;52585;47.566;19.056;2022-08-11T11:50:08;27.13;36.13
65824;SHT31;52585;47.566;19.056;2022-08-11T11:52:37;27.14;35.47
65824;SHT31;52585;47.566;19.056;2022-08-11T11:55:04;27.16;34.84
65824;SHT31;52585;47.566;19.056;2022-08-11T11:57:32;27.18;34.68
65824;SHT31;52585;47.566;19.056;2022-08-11T12:00:18;27.15;34.66
65824;SHT31;52585;47.566;19.056;2022-08-11T12:03:03;27.12;34.16
65824;SHT31;52585;47.566;19.056;2022-08-11T12:05:35;27.10;33.85
65824;SHT31;52585;47.566;19.056;2022-08-11T12:08:04;27.10;33.87
65824;SHT31;52585;47.566;19.056;2022-08-11T12:10:49;27.08;33.87
65824;SHT31;52585;47.566;19.056;2022-08-11T12:13:48;27.06;33.51
65824;SHT31;52585;47.566;19.056;2022-08-11T12:16:17;27.03;33.66
65824;SHT31;52585;47.566;19.056;2022-08-11T12:18:48;27.02;33.75
65824;SHT31;52585;47.566;19.056;2022-08-11T12:21:18;27.01;33.65
65824;SHT31;52585;47.566;19.056;2022-08-11T12:23:46;27.05;34.08
65824;SHT31;52585;47.566;19.056;2022-08-11T12:26:31;27.05;33.87
65824;SHT31;52585;47.566;19.056;2022-08-11T12:29:14;27.04;33.95
65824;SHT31;52585;47.566;19.056;2022-08-11T12:31:44;27.06;33.94
65824;SHT31;52585;47.566;19.056;2022-08-11T12:34:14;27.05;33.87
65824;SHT31;52585;47.566;19.056;2022-08-11T12:36:42;27.05;33.90
65824;SHT31;52585;47.566;19.056;2022-08-11T12:39:18;27.05;33.84
65824;SHT31;52585;47.566;19.056;2022-08-11T12:42:10;27.04;33.85
65824;SHT31;52585;47.566;19.056;2022-08-11T12:45:00;27.02;33.76
65824;SHT31;52585;47.566;19.056;2022-08-11T12:47:49;27.01;33.51
65824;SHT31;52585;47.566;19.056;2022-08-11T12:50:35;27.02;33.69
65824;SHT31;52585;47.566;19.056;2022-08-11T12:53:22;27.01;33.35
65824;SHT31;52585;47.566;19.056;2022-08-11T12:56:02;26.99;33.41
65824;SHT31;52585;47.566;19.056;2022-08-11T12:58:50;26.97;33.75
65824;SHT31;52585;47.566;19.056;2022-08-11T13:01:17;26.98;33.88
65824;SHT31;52585;47.566;19.056;2022-08-11T13:04:03;27.00;34.08
65824;SHT31;52585;47.566;19.056;2022-08-11T13:06:49;26.99;34.19
65824;SHT31;52585;47.566;19.056;2022-08-11T13:09:16;26.98;34.43
65824;SHT31;52585;47.566;19.056;2022-08-11T13:11:44;26.97;34.57
65824;SHT31;52585;47.566;19.056;2022-08-11T13:14:29;26.95;34.56
65824;SHT31;52585;47.566;19.056;2022-08-11T13:16:57;26.95;34.62
65824;SHT31;52585;47.566;19.056;2022-08-11T13:19:43;26.94;34.57
65824;SHT31;52585;47.566;19.056;2022-08-11T13:22:12;26.94;34.78
65824;SHT31;52585;47.566;19.056;2022-08-11T13:24:44;26.93;34.83
65824;SHT31;52585;47.566;19.056;2022-08-11T13:27:12;26.90;34.72
65824;SHT31;52585;47.566;19.056;2022-08-11T13:29:42;26.90;34.96
65824;SHT31;52585;47.566;19.056;2022-08-11T13:32:11;26.88;35.04
65824;SHT31;52585;47.566;19.056;2022-08-11T13:34:40;26.88;35.08
65824;SHT31;52585;47.566;19.056;2022-08-11T13:37:08;26.87;35.16
65824;SHT31;52585;47.566;19.056;2022-08-11T13:39:38;26.88;35.33
65824;SHT31;52585;47.566;19.056;2022-08-11T13:42:11;26.90;35.36
65824;SHT31;52585;47.566;19.056;2022-08-11T13:44:40;26.91;35.27
65824;SHT31;52585;47.566;19.056;2022-08-11T13:47:08;26.91;35.29
65824;SHT31;52585;47.566;19.056;2022-08-11T13:49:38;26.92;35.47
65824;SHT31;52585;47.566;19.056;2022-08-11T13:52:08;26.93;35.70
65824;SHT31;52585;47.566;19.056;2022-08-11T13:54:38;26.95;35.81
65824;SHT31;52585;47.566;19.056;2022-08-11T13:57:07;26.95;35.97
65824;SHT31;52585;47.566;19.056;2022-08-11T13:59:36;26.94;35.83
65824;SHT31;52585;47.566;19.056;2022-08-11T14:02:05;26.94;35.98
65824;SHT31;52585;47.566;19.056;2022-08-11T14:04:42;26.93;36.01
65824;SHT31;52585;47.566;19.056;2022-08-11T14:07:19;26.93;35.55
65824;SHT31;52585;47.566;19.056;2022-08-11T14:09:50;26.95;35.43
65824;SHT31;52585;47.566;19.056;2022-08-11T14:12:27;26.95;35.34
65824;SHT31;52585;47.566;19.056;2022-08-11T14:15:18;26.95;35.42
65824;SHT31;52585;47.566;19.056;2022-08-11T14:17:47;26.93;35.51
65824;SHT31;52585;47.566;19.056;2022-08-11T14:20:25;26.92;35.40
65824;SHT31;52585;47.566;19.056;2022-08-11T14:23:16;26.92;35.22
65824;SHT31;52585;47.566;19.056;2022-08-11T14:25:47;26.91;35.21
65824;SHT31;52585;47.566;19.056;2022-08-11T14:28:33;26.90;35.19
65824;SHT31;52585;47.566;19.056;2022-08-11T14:31:00;26.89;35.17
65824;SHT31;52585;47.566;19.056;2022-08-11T14:33:32;26.90;35.03
65824;SHT31;52585;47.566;19.056;2022-08-11T14:36:00;26.90;35.10
65824;SHT31;52585;47.566;19.056;2022-08-11T14:38:31;26.91;34.96
65824;SHT31;52585;47.566;19.056;2022-08-11T14:41:00;26.92;35.10
65824;SHT31;52585;47.566;19.056;2022-08-11T14:43:45;26.91;34.88
65824;SHT31;52585;47.566;19.056;2022-08-11T14:46:31;26.91;34.85
65824;SHT31;52585;47.566;19.056;2022-08-11T14:49:17;26.90;34.16
65824;SHT31;52585;47.566;19.056;2022-08-11T14:51:44;26.88;34.14
65824;SHT31;52585;47.566;19.056;2022-08-11T14:54:12;26.87;34.02
65824;SHT31;52585;47.566;19.056;2022-08-11T14:57:00;26.88;34.08
65824;SHT31;52585;47.566;19.056;2022-08-11T14:59:27;26.89;34.31
65824;SHT31;52585;47.566;19.056;2022-08-11T15:01:54;26.88;34.10
65824;SHT31;52585;47.566;19.056;2022-08-11T15:04:39;26.88;34.19
65824;SHT31;52585;47.566;19.056;2022-08-11T15:07:05;26.89;34.32
65824;SHT31;52585;47.566;19.056;2022-08-11T15:09:31;26.90;34.43
65824;SHT31;52585;47.566;19.056;2022-08-11T15:11:57;26.90;34.46
65824;SHT31;52585;47.566;19.056;2022-08-11T15:14:34;26.90;34.49
65824;SHT31;52585;47.566;19.056;2022-08-11T15:17:20;26.91;34.67
65824;SHT31;52585;47.566;19.056;2022-08-11T15:19:47;26.90;34.63
65824;SHT31;52585;47.566;19.056;2022-08-11T15:22:33;26.89;34.50
65824;SHT31;52585;47.566;19.056;2022-08-11T15:25:18;26.86;34.08
65824;SHT31;52585;47.566;19.056;2022-08-11T15:27:45;26.84;34.14
65824;SHT31;52585;47.566;19.056;2022-08-11T15:30:35;26.84;34.35
65824;SHT31;52585;47.566;19.056;2022-08-11T15:33:21;26.83;34.05
65824;SHT31;52585;47.566;19.056;2022-08-11T15:36:10;26.81;34.41
65824;SHT31;52585;47.566;19.056;2022-08-11T15:42:25;26.78;34.48
65824;SHT31;52585;47.566;19.056;2022-08-11T15:45:12;26.78;34.63
65824;SHT31;52585;47.566;19.056;2022-08-11T15:48:05;26.78;34.75
65824;SHT31;52585;47.566;19.056;2022-08-11T15:50:37;26.77;34.76
65824;SHT31;52585;47.566;19.056;2022-08-11T15:53:11;26.76;34.87
65824;SHT31;52585;47.566;19.056;2022-08-11T15:55:49;26.75;35.01
65824;SHT31;52585;47.566;19.056;2022-08-11T15:58:17;26.75;35.03
65824;SHT31;52585;47.566;19.056;2022-08-11T16:01:04;26.75;35.05
65824;SHT31;52585;47.566;19.056;2022-08-11T16:03:55;26.74;35.22
65824;SHT31;52585;47.566;19.056;2022-08-11T16:06:48;26.74;35.29
65824;SHT31;52585;47.566;19.056;2022-08-11T16:09:51;26.73;35.41
65824;SHT31;52585;47.566;19.056;2022-08-11T16:12:20;26.72;35.29
65824;SHT31;52585;47.566;19.056;2022-08-11T16:14:57;26.71;35.37
65824;SHT31;52585;47.566;19.056;2022-08-11T16:17:49;26.71;35.52
65824;SHT31;52585;47.566;19.056;2022-08-11T16:20:19;26.71;35.66
65824;SHT31;52585;47.566;19.056;2022-08-11T16:22:49;26.69;35.57
65824;SHT31;52585;47.566;19.056;2022-08-11T16:25:22;26.69;35.64
65824;SHT31;52585;47.566;19.056;2022-08-11T16:27:57;26.68;35.74
65824;SHT31;52585;47.566;19.056;2022-08-11T16:30:30;26.67;35.91
65824;SHT31;52585;47.566;19.056;2022-08-11T16:32:59;26.66;36.03
65824;SHT31;52585;47.566;19.056;2022-08-11T16:35:29;26.66;36.18
65824;SHT31;52585;47.566;19.056;2022-08-11T16:38:19;26.63;36.45
65824;SHT31;52585;47.566;19.056;2022-08-11T16:41:05;26.65;36.57
65824;SHT31;52585;47.566;19.056;2022-08-11T16:44:48;26.63;36.49
65824;SHT31;52585;47.566;19.056;2022-08-11T16:47:55;26.63;36.33
65824;SHT31;52585;47.566;19.056;2022-08-11T16:50:21;26.62;36.18
65824;SHT31;52585;47.566;19.056;2022-08-11T16:52:48;26.61;36.20
65824;SHT31;52585;47.566;19.056;2022-08-11T16:55:16;26.61;36.12
65824;SHT31;52585;47.566;19.056;2022-08-11T16:57:42;26.61;36.21
65824;SHT31;52585;47.566;19.056;2022-08-11T17:00:27;26.61;36.17
65824;SHT31;52585;47.566;19.056;2022-08-11T17:02:53;26.60;36.12
65824;SHT31;52585;47.566;19.056;2022-08-11T17:05:45;26.59;36.04
65824;SHT31;52585;47.566;19.056;2022-08-11T17:08:41;26.57;36.09
65824;SHT31;52585;47.566;19.056;2022-08-11T17:11:32;26.55;36.21
65824;SHT31;52585;47.566;19.056;2022-08-11T17:14:31;26.53;36.33
65824;SHT31;52585;47.566;19.056;2022-08-11T17:17:11;26.51;36.50
65824;SHT31;52585;47.566;19.056;2022-08-11T17:19:49;26.48;36.65
65824;SHT31;52585;47.566;19.056;2022-08-11T17:22:19;26.44;36.80
65824;SHT31;52585;47.566;19.056;2022-08-11T17:25:05;26.41;36.95
65824;SHT31;52585;47.566;19.056;2022-08-11T17:27:34;26.37;37.01
65824;SHT31;52585;47.566;19.056;2022-08-11T17:30:03;26.34;37.07
65824;SHT31;52585;47.566;19.056;2022-08-11T17:32:39;26.32;37.23
65824;SHT31;52585;47.566;19.056;2022-08-11T17:35:34;26.27;37.32
65824;SHT31;52585;47.566;19.056;2022-08-11T17:38:13;26.23;37.42
65824;SHT31;52585;47.566;19.056;2022-08-11T17:40:45;26.19;37.59
65824;SHT31;52585;47.566;19.056;2022-08-11T17:43:36;26.14;37.76
65824;SHT31;52585;47.566;19.056;2022-08-11T17:46:22;26.10;37.92
65824;SHT31;52585;47.566;19.056;2022-08-11T17:49:08;26.06;38.07
65824;SHT31;52585;47.566;19.056;2022-08-11T17:51:37;26.03;38.12
65824;SHT31;52585;47.566;19.056;2022-08-11T17:54:25;25.99;38.20
65824;SHT31;52585;47.566;19.056;2022-08-11T17:57:11;25.94;38.32
65824;SHT31;52585;47.566;19.056;2022-08-11T17:59:58;25.89;38.47
65824;SHT31;52585;47.566;19.056;2022-08-11T18:02:36;25.85;38.57
65824;SHT31;52585;47.566;19.056;2022-08-11T18:05:42;25.81;38.75
65824;SHT31;52585;47.566;19.056;2022-08-11T18:08:13;25.78;38.72
65824;SHT31;52585;47.566;19.056;2022-08-11T18:11:00;25.74;38.79
65824;SHT31;52585;47.566;19.056;2022-08-11T18:13:45;25.71;38.78
65824;SHT31;52585;47.566;19.056;2022-08-11T18:16:33;25.67;38.85
65824;SHT31;52585;47.566;19.056;2022-08-11T18:19:17;25.63;38.82
65824;SHT31;52585;47.566;19.056;2022-08-11T18:22:05;25.60;38.87
65824;SHT31;52585;47.566;19.056;2022-08-11T18:25:03;25.55;39.02
65824;SHT31;52585;47.566;19.056;2022-08-11T18:27:54;25.50;39.01
65824;SHT31;52585;47.566;19.056;2022-08-11T18:30:41;25.47;39.15
65824;SHT31;52585;47.566;19.056;2022-08-11T18:33:38;25.41;39.33
65824;SHT31;52585;47.566;19.056;2022-08-11T18:36:33;25.32;39.40
65824;SHT31;52585;47.566;19.056;2022-08-11T18:39:23;25.27;39.62
65824;SHT31;52585;47.566;19.056;2022-08-11T18:42:13;25.27;39.61
65824;SHT31;52585;47.566;19.056;2022-08-11T18:45:04;25.24;39.60
65824;SHT31;52585;47.566;19.056;2022-08-11T18:47:57;25.22;39.62
65824;SHT31;52585;47.566;19.056;2022-08-11T18:50:49;25.19;39.82
65824;SHT31;52585;47.566;19.056;2022-08-11T18:53:38;25.17;39.89
65824;SHT31;52585;47.566;19.056;2022-08-11T18:56:26;25.15;40.08
65824;SHT31;52585;47.566;19.056;2022-08-11T18:59:13;25.13;40.26
65824;SHT31;52585;47.566;19.056;2022-08-11T19:02:03;25.09;40.47
65824;SHT31;52585;47.566;19.056;2022-08-11T19:04:48;25.07;40.67
65824;SHT31;52585;47.566;19.056;2022-08-11T19:07:35;25.02;40.78
65824;SHT31;52585;47.566;19.056;2022-08-11T19:10:23;25.00;40.79
65824;SHT31;52585;47.566;19.056;2022-08-11T19:13:07;24.95;40.80
65824;SHT31;52585;47.566;19.056;2022-08-11T19:16:02;24.92;40.88
65824;SHT31;52585;47.566;19.056;2022-08-11T19:18:52;24.89;41.24
65824;SHT31;52585;47.566;19.056;2022-08-11T19:21:39;24.86;41.33
65824;SHT31;52585;47.566;19.056;2022-08-11T19:24:25;24.83;41.38
65824;SHT31;52585;47.566;19.056;2022-08-11T19:27:13;24.79;41.53
65824;SHT31;52585;47.566;19.056;2022-08-11T19:30:00;24.76;41.68
65824;SHT31;52585;47.566;19.056;2022-08-11T19:32:45;24.73;41.71
65824;SHT31;52585;47.566;19.056;2022-08-11T19:35:30;24.69;41.95
65824;SHT31;52585;47.566;19.056;2022-08-11T19:38:17;24.67;42.04
65824;SHT31;52585;47.566;19.056;2022-08-11T19:41:03;24.63;42.00
65824;SHT31;52585;47.566;19.056;2022-08-11T19:43:48;24.61;42.20
65824;SHT31;52585;47.566;19.056;2022-08-11T19:46:34;24.58;42.41
65824;SHT31;52585;47.566;19.056;2022-08-11T19:49:22;24.56;42.51
65824;SHT31;52585;47.566;19.056;2022-08-11T19:52:07;24.53;42.62
65824;SHT31;52585;47.566;19.056;2022-08-11T19:54:52;24.45;42.55
65824;SHT31;52585;47.566;19.056;2022-08-11T19:57:38;24.34;42.99
65824;SHT31;52585;47.566;19.056;2022-08-11T20:00:24;24.33;43.04
65824;SHT31;52585;47.566;19.056;2022-08-11T20:03:09;24.33;42.92
65824;SHT31;52585;47.566;19.056;2022-08-11T20:05:58;24.32;42.92
65824;SHT31;52585;47.566;19.056;2022-08-11T20:08:48;24.31;42.80
65824;SHT31;52585;47.566;19.056;2022-08-11T20:11:40;24.28;43.04
65824;SHT31;52585;47.566;19.056;2022-08-11T20:14:46;24.26;43.28